sensor_id;sensor_type;location;lat;lon;timestamp;temperature;humidity
40053;DHT22;25758;48.200;16.338;2023-05-10T00:02:06;13.50;96.70
40053;DHT22;25758;48.200;16.338;2023-05-10T00:04:32;13.40;96.80
40053;DHT22;25758;48.200;16.338;2023-05-10T00:06:58;13.40;97.00
40053;DHT22;25758;48.200;16.338;2023-05-10T00:09:23;13.30;97.00
40053;DHT22;25758;48.200;16.338;2023-05-10T00:11:49;13.30;97.10
40053;DHT22;25758;48.200;16.338;2023-05-10T00:14:15;13.30;97.10
40053;DHT22;25758;48.200;16.338;2023-05-10T00:16:41;13.30;97.20
40053;DHT22;25758;48.200;16.338;2023-05-10T00:19:06;13.30;97.40
40053;DHT22;25758;48.200;16.338;2023-05-10T00:21:32;13.30;97.50
40053;DHT22;25758;48.200;16.338;2023-05-10T00:23:59;13.30;97.80
40053;DHT22;25758;48.200;16.338;2023-05-10T00:26:25;13.30;98.00
40053;DHT22;25758;48.200;16.338;2023-05-10T00:28:50;13.30;98.20
40053;DHT22;25758;48.200;16.338;2023-05-10T00:31:16;13.40;98.40
40053;DHT22;25758;48.200;16.338;2023-05-10T00:33:41;13.30;98.50
40053;DHT22;25758;48.200;16.338;2023-05-10T00:36:07;13.30;98.70
40053;DHT22;25758;48.200;16.338;2023-05-10T00:38:33;13.30;98.80
40053;DHT22;25758;48.200;16.338;2023-05-10T00:40:59;13.30;99.00
40053;DHT22;25758;48.200;16.338;2023-05-10T00:43:25;13.30;99.20
40053;DHT22;25758;48.200;16.338;2023-05-10T00:45:50;13.30;99.20
40053;DHT22;25758;48.200;16.338;2023-05-10T00:48:16;13.20;99.20
40053;DHT22;25758;48.200;16.338;2023-05-10T00:50:42;13.30;99.20
40053;DHT22;25758;48.200;16.338;2023-05-10T00:53:08;13.20;99.50
40053;DHT22;25758;48.200;16.338;2023-05-10T00:55:34;13.20;99.50
40053;DHT22;25758;48.200;16.338;2023-05-10T00:58:00;13.10;99.70
40053;DHT22;25758;48.200;16.338;2023-05-10T01:00:26;13.10;99.80
40053;DHT22;25758;48.200;16.338;2023-05-10T01:02:53;13.10;99.90
40053;DHT22;25758;48.200;16.338;2023-05-10T01:05:19;13.10;99.90
40053;DHT22;25758;48.200;16.338;2023-05-10T01:07:45;13.00;99.90
40053;DHT22;25758;48.200;16.338;2023-05-10T01:10:11;13.00;99.90
40053;DHT22;25758;48.200;16.338;2023-05-10T01:12:39;13.00;99.90
40053;DHT22;25758;48.200;16.338;2023-05-10T01:15:07;13.00;99.90
40053;DHT22;25758;48.200;16.338;2023-05-10T01:17:37;13.00;99.90
40053;DHT22;25758;48.200;16.338;2023-05-10T01:20:04;13.00;99.90
40053;DHT22;25758;48.200;16.338;2023-05-10T01:28:13;12.90;99.90
40053;DHT22;25758;48.200;16.338;2023-05-10T01:31:26;12.80;99.90
40053;DHT22;25758;48.200;16.338;2023-05-10T01:33:54;12.80;99.90
40053;DHT22;25758;48.200;16.338;2023-05-10T01:36:57;12.80;99.90
40053;DHT22;25758;48.200;16.338;2023-05-10T01:39:50;12.80;99.90
40053;DHT22;25758;48.200;16.338;2023-05-10T01:42:21;12.70;99.90
40053;DHT22;25758;48.200;16.338;2023-05-10T01:47:46;12.50;99.90
40053;DHT22;25758;48.200;16.338;2023-05-10T01:50:19;12.50;99.90
40053;DHT22;25758;48.200;16.338;2023-05-10T01:52:50;12.50;99.90
40053;DHT22;25758;48.200;16.338;2023-05-10T01:55:18;12.50;99.90
40053;DHT22;25758;48.200;16.338;2023-05-10T01:57:46;12.50;99.90
40053;DHT22;25758;48.200;16.338;2023-05-10T02:00:14;12.50;99.90
40053;DHT22;25758;48.200;16.338;2023-05-10T02:02:46;12.50;99.90
40053;DHT22;25758;48.200;16.338;2023-05-10T02:05:13;12.40;99.90
40053;DHT22;25758;48.200;16.338;2023-05-10T02:07:40;12.40;99.90
40053;DHT22;25758;48.200;16.338;2023-05-10T02:10:07;12.40;99.90
40053;DHT22;25758;48.200;16.338;2023-05-10T02:12:45;12.40;99.90
40053;DHT22;25758;48.200;16.338;2023-05-10T02:15:17;12.40;99.90
40053;DHT22;25758;48.200;16.338;2023-05-10T02:17:44;12.40;99.90
40053;DHT22;25758;48.200;16.338;2023-05-10T02:20:12;12.40;99.90
40053;DHT22;25758;48.200;16.338;2023-05-10T02:22:40;12.40;99.90
40053;DHT22;25758;48.200;16.338;2023-05-10T02:25:08;12.30;99.90
40053;DHT22;25758;48.200;16.338;2023-05-10T02:27:34;12.30;99.90
40053;DHT22;25758;48.200;16.338;2023-05-10T02:30:01;12.20;99.90
40053;DHT22;25758;48.200;16.338;2023-05-10T02:32:28;12.30;99.90
40053;DHT22;25758;48.200;16.338;2023-05-10T02:34:55;12.20;99.90
40053;DHT22;25758;48.200;16.338;2023-05-10T02:37:22;12.20;99.90
40053;DHT22;25758;48.200;16.338;2023-05-10T02:39:50;12.10;99.90
40053;DHT22;25758;48.200;16.338;2023-05-10T02:42:18;12.10;99.90
40053;DHT22;25758;48.200;16.338;2023-05-10T02:44:48;12.10;99.90
40053;DHT22;25758;48.200;16.338;2023-05-10T02:47:15;12.10;99.90
40053;DHT22;25758;48.200;16.338;2023-05-10T02:49:42;12.10;99.90
40053;DHT22;25758;48.200;16.338;2023-05-10T02:52:08;12.10;99.90
40053;DHT22;25758;48.200;16.338;2023-05-10T02:54:43;12.10;99.90
40053;DHT22;25758;48.200;16.338;2023-05-10T02:57:14;12.10;99.90
40053;DHT22;25758;48.200;16.338;2023-05-10T02:59:40;12.10;99.90
40053;DHT22;25758;48.200;16.338;2023-05-10T03:02:08;12.40;99.90
40053;DHT22;25758;48.200;16.338;2023-05-10T03:04:34;12.00;99.90
40053;DHT22;25758;48.200;16.338;2023-05-10T03:07:00;12.00;99.90
40053;DHT22;25758;48.200;16.338;2023-05-10T03:09:26;13.80;99.90
40053;DHT22;25758;48.200;16.338;2023-05-10T03:12:10;12.00;99.90
40053;DHT22;25758;48.200;16.338;2023-05-10T03:14:53;11.90;99.90
40053;DHT22;25758;48.200;16.338;2023-05-10T03:17:25;11.80;99.90
40053;DHT22;25758;48.200;16.338;2023-05-10T03:19:56;11.90;99.90
40053;DHT22;25758;48.200;16.338;2023-05-10T03:22:44;11.90;99.90
40053;DHT22;25758;48.200;16.338;2023-05-10T03:25:11;11.80;99.90
40053;DHT22;25758;48.200;16.338;2023-05-10T03:27:39;11.90;99.90
40053;DHT22;25758;48.200;16.338;2023-05-10T03:30:08;11.80;99.90
40053;DHT22;25758;48.200;16.338;2023-05-10T03:32:35;11.80;99.90
40053;DHT22;25758;48.200;16.338;2023-05-10T03:35:09;11.70;99.90
40053;DHT22;25758;48.200;16.338;2023-05-10T03:37:34;11.70;99.90
40053;DHT22;25758;48.200;16.338;2023-05-10T03:40:01;11.70;99.90
40053;DHT22;25758;48.200;16.338;2023-05-10T03:42:27;11.70;99.90
40053;DHT22;25758;48.200;16.338;2023-05-10T03:44:52;11.70;99.90
40053;DHT22;25758;48.200;16.338;2023-05-10T03:47:18;11.60;99.90
40053;DHT22;25758;48.200;16.338;2023-05-10T03:49:43;11.70;99.90
40053;DHT22;25758;48.200;16.338;2023-05-10T03:52:09;11.70;99.90
40053;DHT22;25758;48.200;16.338;2023-05-10T03:54:34;11.70;99.90
40053;DHT22;25758;48.200;16.338;2023-05-10T03:57:00;11.70;99.90
40053;DHT22;25758;48.200;16.338;2023-05-10T03:59:26;11.70;99.90
40053;DHT22;25758;48.200;16.338;2023-05-10T04:01:52;11.70;99.90
40053;DHT22;25758;48.200;16.338;2023-05-10T04:04:17;11.70;99.90
40053;DHT22;25758;48.200;16.338;2023-05-10T04:06:44;11.60;99.90
40053;DHT22;25758;48.200;16.338;2023-05-10T04:09:10;11.60;99.90
40053;DHT22;25758;48.200;16.338;2023-05-10T04:11:36;11.60;99.90
40053;DHT22;25758;48.200;16.338;2023-05-10T04:14:01;11.60;99.90
40053;DHT22;25758;48.200;16.338;2023-05-10T04:16:27;11.60;99.90
40053;DHT22;25758;48.200;16.338;2023-05-10T04:18:53;11.60;99.90
40053;DHT22;25758;48.200;16.338;2023-05-10T04:21:18;11.60;99.90
40053;DHT22;25758;48.200;16.338;2023-05-10T04:23:44;11.60;99.90
40053;DHT22;25758;48.200;16.338;2023-05-10T04:26:10;11.40;99.90
40053;DHT22;25758;48.200;16.338;2023-05-10T04:28:35;11.50;99.90
40053;DHT22;25758;48.200;16.338;2023-05-10T04:33:27;11.40;99.90
40053;DHT22;25758;48.200;16.338;2023-05-10T04:35:53;11.40;99.90
40053;DHT22;25758;48.200;16.338;2023-05-10T04:38:19;11.40;99.90
40053;DHT22;25758;48.200;16.338;2023-05-10T04:40:44;11.30;99.90
40053;DHT22;25758;48.200;16.338;2023-05-10T04:43:10;11.40;99.90
40053;DHT22;25758;48.200;16.338;2023-05-10T04:45:35;11.50;99.90
40053;DHT22;25758;48.200;16.338;2023-05-10T04:48:01;11.40;99.90
40053;DHT22;25758;48.200;16.338;2023-05-10T04:50:26;11.50;99.90
40053;DHT22;25758;48.200;16.338;2023-05-10T04:52:52;11.50;99.90
40053;DHT22;25758;48.200;16.338;2023-05-10T04:55:17;11.50;99.90
40053;DHT22;25758;48.200;16.338;2023-05-10T04:57:43;11.60;99.90
40053;DHT22;25758;48.200;16.338;2023-05-10T05:00:10;11.60;99.90
40053;DHT22;25758;48.200;16.338;2023-05-10T05:02:36;11.60;99.90
40053;DHT22;25758;48.200;16.338;2023-05-10T05:05:01;11.70;99.90
40053;DHT22;25758;48.200;16.338;2023-05-10T05:07:27;11.70;99.90
40053;DHT22;25758;48.200;16.338;2023-05-10T05:09:52;11.70;99.90
40053;DHT22;25758;48.200;16.338;2023-05-10T05:12:18;11.80;99.90
40053;DHT22;25758;48.200;16.338;2023-05-10T05:14:43;11.90;99.90
40053;DHT22;25758;48.200;16.338;2023-05-10T05:17:09;11.80;99.90
40053;DHT22;25758;48.200;16.338;2023-05-10T05:19:35;11.80;99.90
40053;DHT22;25758;48.200;16.338;2023-05-10T05:22:01;11.90;99.90
40053;DHT22;25758;48.200;16.338;2023-05-10T05:24:26;11.90;99.90
40053;DHT22;25758;48.200;16.338;2023-05-10T05:26:52;12.00;99.90
40053;DHT22;25758;48.200;16.338;2023-05-10T05:29:18;12.10;99.90
40053;DHT22;25758;48.200;16.338;2023-05-10T05:31:43;12.10;99.90
40053;DHT22;25758;48.200;16.338;2023-05-10T05:34:09;12.20;99.90
40053;DHT22;25758;48.200;16.338;2023-05-10T05:36:36;12.30;99.90
40053;DHT22;25758;48.200;16.338;2023-05-10T05:39:03;12.40;99.90
40053;DHT22;25758;48.200;16.338;2023-05-10T05:41:29;12.50;99.90
40053;DHT22;25758;48.200;16.338;2023-05-10T05:43:54;12.50;99.90
40053;DHT22;25758;48.200;16.338;2023-05-10T05:46:20;12.60;99.90
40053;DHT22;25758;48.200;16.338;2023-05-10T05:48:46;12.70;99.90
40053;DHT22;25758;48.200;16.338;2023-05-10T05:51:11;12.70;99.90
40053;DHT22;25758;48.200;16.338;2023-05-10T05:53:37;12.90;99.90
40053;DHT22;25758;48.200;16.338;2023-05-10T05:56:03;12.90;99.90
40053;DHT22;25758;48.200;16.338;2023-05-10T05:58:28;13.10;99.90
40053;DHT22;25758;48.200;16.338;2023-05-10T06:00:54;13.20;99.90
40053;DHT22;25758;48.200;16.338;2023-05-10T06:03:20;13.30;99.90
40053;DHT22;25758;48.200;16.338;2023-05-10T06:05:46;13.40;99.90
40053;DHT22;25758;48.200;16.338;2023-05-10T06:08:12;13.50;99.90
40053;DHT22;25758;48.200;16.338;2023-05-10T06:10:37;13.50;99.90
40053;DHT22;25758;48.200;16.338;2023-05-10T06:13:03;13.60;99.90
40053;DHT22;25758;48.200;16.338;2023-05-10T06:15:29;13.70;99.90
40053;DHT22;25758;48.200;16.338;2023-05-10T06:17:54;13.80;99.90
40053;DHT22;25758;48.200;16.338;2023-05-10T06:20:20;13.90;99.90
40053;DHT22;25758;48.200;16.338;2023-05-10T06:22:45;14.00;99.90
40053;DHT22;25758;48.200;16.338;2023-05-10T06:25:11;14.00;99.90
40053;DHT22;25758;48.200;16.338;2023-05-10T06:27:37;14.10;99.90
40053;DHT22;25758;48.200;16.338;2023-05-10T06:30:03;14.20;99.90
40053;DHT22;25758;48.200;16.338;2023-05-10T06:32:30;14.40;99.90
40053;DHT22;25758;48.200;16.338;2023-05-10T06:34:55;14.30;99.90
40053;DHT22;25758;48.200;16.338;2023-05-10T06:37:21;14.40;99.90
40053;DHT22;25758;48.200;16.338;2023-05-10T06:39:46;14.40;99.90
40053;DHT22;25758;48.200;16.338;2023-05-10T06:42:12;14.50;99.90
40053;DHT22;25758;48.200;16.338;2023-05-10T06:44:37;14.50;99.90
40053;DHT22;25758;48.200;16.338;2023-05-10T06:47:03;14.60;99.90
40053;DHT22;25758;48.200;16.338;2023-05-10T06:49:29;14.70;99.90
40053;DHT22;25758;48.200;16.338;2023-05-10T06:51:57;14.80;99.90
40053;DHT22;25758;48.200;16.338;2023-05-10T06:54:23;14.80;99.90
40053;DHT22;25758;48.200;16.338;2023-05-10T06:56:49;14.80;99.90
40053;DHT22;25758;48.200;16.338;2023-05-10T06:59:15;14.90;99.90
40053;DHT22;25758;48.200;16.338;2023-05-10T07:01:42;14.90;99.90
40053;DHT22;25758;48.200;16.338;2023-05-10T07:04:08;14.90;99.90
40053;DHT22;25758;48.200;16.338;2023-05-10T07:06:33;15.10;99.90
40053;DHT22;25758;48.200;16.338;2023-05-10T07:08:59;15.20;99.90
40053;DHT22;25758;48.200;16.338;2023-05-10T07:11:26;15.30;99.80
40053;DHT22;25758;48.200;16.338;2023-05-10T07:13:52;15.50;99.40
40053;DHT22;25758;48.200;16.338;2023-05-10T07:16:17;15.60;99.10
40053;DHT22;25758;48.200;16.338;2023-05-10T07:18:43;15.70;98.70
40053;DHT22;25758;48.200;16.338;2023-05-10T07:21:09;15.80;98.40
40053;DHT22;25758;48.200;16.338;2023-05-10T07:23:34;15.80;98.10
40053;DHT22;25758;48.200;16.338;2023-05-10T07:26:00;15.90;98.20
40053;DHT22;25758;48.200;16.338;2023-05-10T07:28:27;16.10;97.60
40053;DHT22;25758;48.200;16.338;2023-05-10T07:30:53;16.20;97.40
40053;DHT22;25758;48.200;16.338;2023-05-10T07:33:18;16.30;97.60
40053;DHT22;25758;48.200;16.338;2023-05-10T07:35:44;16.50;97.60
40053;DHT22;25758;48.200;16.338;2023-05-10T07:38:10;16.70;97.50
40053;DHT22;25758;48.200;16.338;2023-05-10T07:40:36;17.10;97.20
40053;DHT22;25758;48.200;16.338;2023-05-10T07:43:03;17.70;96.70
40053;DHT22;25758;48.200;16.338;2023-05-10T07:45:29;18.20;95.80
40053;DHT22;25758;48.200;16.338;2023-05-10T07:47:54;18.50;94.50
40053;DHT22;25758;48.200;16.338;2023-05-10T07:50:20;18.70;93.90
40053;DHT22;25758;48.200;16.338;2023-05-10T07:52:46;19.00;93.80
40053;DHT22;25758;48.200;16.338;2023-05-10T07:55:12;19.40;93.70
40053;DHT22;25758;48.200;16.338;2023-05-10T07:57:38;19.70;92.90
40053;DHT22;25758;48.200;16.338;2023-05-10T08:00:05;19.90;91.90
40053;DHT22;25758;48.200;16.338;2023-05-10T08:02:30;19.80;91.50
40053;DHT22;25758;48.200;16.338;2023-05-10T08:04:56;19.90;91.50
40053;DHT22;25758;48.200;16.338;2023-05-10T08:07:24;20.10;91.10
40053;DHT22;25758;48.200;16.338;2023-05-10T08:09:49;20.10;91.30
40053;DHT22;25758;48.200;16.338;2023-05-10T08:12:15;20.20;91.10
40053;DHT22;25758;48.200;16.338;2023-05-10T08:14:41;20.20;91.20
40053;DHT22;25758;48.200;16.338;2023-05-10T08:17:06;20.20;91.00
40053;DHT22;25758;48.200;16.338;2023-05-10T08:19:32;20.20;90.70
40053;DHT22;25758;48.200;16.338;2023-05-10T08:21:57;20.40;91.00
40053;DHT22;25758;48.200;16.338;2023-05-10T08:24:23;20.40;88.50
40053;DHT22;25758;48.200;16.338;2023-05-10T08:26:49;20.60;88.90
40053;DHT22;25758;48.200;16.338;2023-05-10T08:29:15;20.50;87.10
40053;DHT22;25758;48.200;16.338;2023-05-10T08:31:40;20.40;89.10
40053;DHT22;25758;48.200;16.338;2023-05-10T08:34:06;20.50;89.60
40053;DHT22;25758;48.200;16.338;2023-05-10T08:36:32;20.60;89.00
40053;DHT22;25758;48.200;16.338;2023-05-10T08:38:58;20.50;88.40
40053;DHT22;25758;48.200;16.338;2023-05-10T08:41:24;20.30;88.30
40053;DHT22;25758;48.200;16.338;2023-05-10T08:43:52;19.90;88.20
40053;DHT22;25758;48.200;16.338;2023-05-10T08:46:19;19.80;88.00
40053;DHT22;25758;48.200;16.338;2023-05-10T08:48:46;19.90;88.10
40053;DHT22;25758;48.200;16.338;2023-05-10T08:51:15;19.90;88.80
40053;DHT22;25758;48.200;16.338;2023-05-10T08:53:43;19.90;89.50
40053;DHT22;25758;48.200;16.338;2023-05-10T08:56:09;20.00;90.30
40053;DHT22;25758;48.200;16.338;2023-05-10T08:58:36;20.10;89.80
40053;DHT22;25758;48.200;16.338;2023-05-10T09:01:03;20.10;89.50
40053;DHT22;25758;48.200;16.338;2023-05-10T09:03:29;20.00;89.90
40053;DHT22;25758;48.200;16.338;2023-05-10T09:05:55;20.10;88.90
40053;DHT22;25758;48.200;16.338;2023-05-10T09:08:23;20.00;89.10
40053;DHT22;25758;48.200;16.338;2023-05-10T09:10:51;19.90;90.00
40053;DHT22;25758;48.200;16.338;2023-05-10T09:13:17;19.70;89.60
40053;DHT22;25758;48.200;16.338;2023-05-10T09:15:44;19.60;90.00
40053;DHT22;25758;48.200;16.338;2023-05-10T09:18:10;19.50;90.00
40053;DHT22;25758;48.200;16.338;2023-05-10T09:20:36;19.50;89.60
40053;DHT22;25758;48.200;16.338;2023-05-10T09:23:01;19.50;90.00
40053;DHT22;25758;48.200;16.338;2023-05-10T09:25:27;19.40;90.40
40053;DHT22;25758;48.200;16.338;2023-05-10T09:27:53;19.10;90.00
40053;DHT22;25758;48.200;16.338;2023-05-10T09:30:31;19.20;90.50
40053;DHT22;25758;48.200;16.338;2023-05-10T09:32:58;19.30;90.50
40053;DHT22;25758;48.200;16.338;2023-05-10T09:35:26;19.50;90.20
40053;DHT22;25758;48.200;16.338;2023-05-10T09:37:53;19.50;88.70
40053;DHT22;25758;48.200;16.338;2023-05-10T09:40:21;19.50;88.70
40053;DHT22;25758;48.200;16.338;2023-05-10T09:45:21;19.50;88.00
40053;DHT22;25758;48.200;16.338;2023-05-10T09:47:47;19.40;87.50
40053;DHT22;25758;48.200;16.338;2023-05-10T09:50:13;19.30;88.20
40053;DHT22;25758;48.200;16.338;2023-05-10T09:52:59;19.20;89.20
40053;DHT22;25758;48.200;16.338;2023-05-10T09:55:46;19.00;90.00
40053;DHT22;25758;48.200;16.338;2023-05-10T09:58:13;19.20;89.20
40053;DHT22;25758;48.200;16.338;2023-05-10T10:00:41;19.20;88.10
40053;DHT22;25758;48.200;16.338;2023-05-10T10:03:15;19.50;88.80
40053;DHT22;25758;48.200;16.338;2023-05-10T10:05:42;19.60;88.10
40053;DHT22;25758;48.200;16.338;2023-05-10T10:08:08;19.70;87.90
40053;DHT22;25758;48.200;16.338;2023-05-10T10:10:34;19.40;86.60
40053;DHT22;25758;48.200;16.338;2023-05-10T10:13:00;19.10;87.50
40053;DHT22;25758;48.200;16.338;2023-05-10T10:15:26;18.90;87.40
40053;DHT22;25758;48.200;16.338;2023-05-10T10:17:53;18.80;87.70
40053;DHT22;25758;48.200;16.338;2023-05-10T10:20:20;19.00;89.70
40053;DHT22;25758;48.200;16.338;2023-05-10T10:22:46;19.20;89.30
40053;DHT22;25758;48.200;16.338;2023-05-10T10:25:15;19.40;89.00
40053;DHT22;25758;48.200;16.338;2023-05-10T10:30:42;19.80;87.50
40053;DHT22;25758;48.200;16.338;2023-05-10T10:35:36;20.00;86.10
40053;DHT22;25758;48.200;16.338;2023-05-10T10:38:02;19.90;85.90
40053;DHT22;25758;48.200;16.338;2023-05-10T10:40:33;20.00;85.70
40053;DHT22;25758;48.200;16.338;2023-05-10T10:43:26;20.10;84.70
40053;DHT22;25758;48.200;16.338;2023-05-10T10:46:10;20.20;82.90
40053;DHT22;25758;48.200;16.338;2023-05-10T10:48:37;20.20;82.60
40053;DHT22;25758;48.200;16.338;2023-05-10T10:51:03;20.20;87.10
40053;DHT22;25758;48.200;16.338;2023-05-10T10:53:29;20.20;85.30
40053;DHT22;25758;48.200;16.338;2023-05-10T10:56:09;20.00;85.60
40053;DHT22;25758;48.200;16.338;2023-05-10T10:58:38;19.90;84.80
40053;DHT22;25758;48.200;16.338;2023-05-10T11:01:16;19.80;84.40
40053;DHT22;25758;48.200;16.338;2023-05-10T11:06:34;19.60;86.00
40053;DHT22;25758;48.200;16.338;2023-05-10T11:09:08;19.60;87.70
40053;DHT22;25758;48.200;16.338;2023-05-10T11:11:35;19.70;88.20
40053;DHT22;25758;48.200;16.338;2023-05-10T11:14:07;19.70;86.70
40053;DHT22;25758;48.200;16.338;2023-05-10T11:16:43;19.80;86.00
40053;DHT22;25758;48.200;16.338;2023-05-10T11:19:11;19.80;85.60
40053;DHT22;25758;48.200;16.338;2023-05-10T11:24:20;19.80;86.10
40053;DHT22;25758;48.200;16.338;2023-05-10T11:26:46;19.80;86.20
40053;DHT22;25758;48.200;16.338;2023-05-10T11:29:13;19.80;85.70
40053;DHT22;25758;48.200;16.338;2023-05-10T11:31:45;19.80;85.70
40053;DHT22;25758;48.200;16.338;2023-05-10T11:34:29;19.70;86.00
40053;DHT22;25758;48.200;16.338;2023-05-10T11:36:56;19.60;86.60
40053;DHT22;25758;48.200;16.338;2023-05-10T11:39:26;19.60;87.50
40053;DHT22;25758;48.200;16.338;2023-05-10T11:41:52;19.70;87.00
40053;DHT22;25758;48.200;16.338;2023-05-10T11:44:18;19.80;86.10
40053;DHT22;25758;48.200;16.338;2023-05-10T11:46:44;19.90;87.10
40053;DHT22;25758;48.200;16.338;2023-05-10T11:49:10;19.90;85.60
40053;DHT22;25758;48.200;16.338;2023-05-10T11:51:36;20.00;85.80
40053;DHT22;25758;48.200;16.338;2023-05-10T11:54:07;19.90;86.60
40053;DHT22;25758;48.200;16.338;2023-05-10T11:56:34;20.00;85.50
40053;DHT22;25758;48.200;16.338;2023-05-10T11:58:59;20.00;86.70
40053;DHT22;25758;48.200;16.338;2023-05-10T12:01:27;20.00;85.30
40053;DHT22;25758;48.200;16.338;2023-05-10T12:03:55;19.90;86.00
40053;DHT22;25758;48.200;16.338;2023-05-10T12:06:26;19.90;84.50
40053;DHT22;25758;48.200;16.338;2023-05-10T12:08:52;19.80;84.60
40053;DHT22;25758;48.200;16.338;2023-05-10T12:11:19;19.80;84.30
40053;DHT22;25758;48.200;16.338;2023-05-10T12:13:47;19.80;84.00
40053;DHT22;25758;48.200;16.338;2023-05-10T12:16:18;19.70;83.10
40053;DHT22;25758;48.200;16.338;2023-05-10T12:18:44;19.80;84.90
40053;DHT22;25758;48.200;16.338;2023-05-10T12:21:11;19.90;84.30
40053;DHT22;25758;48.200;16.338;2023-05-10T12:23:40;19.90;84.70
40053;DHT22;25758;48.200;16.338;2023-05-10T12:26:08;19.90;83.60
40053;DHT22;25758;48.200;16.338;2023-05-10T12:28:34;20.00;84.50
40053;DHT22;25758;48.200;16.338;2023-05-10T12:31:01;20.00;82.60
40053;DHT22;25758;48.200;16.338;2023-05-10T12:33:27;19.80;83.70
40053;DHT22;25758;48.200;16.338;2023-05-10T12:36:00;19.90;83.50
40053;DHT22;25758;48.200;16.338;2023-05-10T12:38:26;19.90;83.30
40053;DHT22;25758;48.200;16.338;2023-05-10T12:40:58;20.00;84.00
40053;DHT22;25758;48.200;16.338;2023-05-10T12:43:24;20.10;84.00
40053;DHT22;25758;48.200;16.338;2023-05-10T12:45:50;20.10;82.60
40053;DHT22;25758;48.200;16.338;2023-05-10T12:48:15;20.00;80.80
40053;DHT22;25758;48.200;16.338;2023-05-10T12:50:41;20.00;80.00
40053;DHT22;25758;48.200;16.338;2023-05-10T12:53:07;20.00;81.80
40053;DHT22;25758;48.200;16.338;2023-05-10T12:55:33;20.00;79.90
40053;DHT22;25758;48.200;16.338;2023-05-10T12:57:58;20.00;80.40
40053;DHT22;25758;48.200;16.338;2023-05-10T13:00:24;20.00;80.70
40053;DHT22;25758;48.200;16.338;2023-05-10T13:02:49;19.80;81.10
40053;DHT22;25758;48.200;16.338;2023-05-10T13:05:15;19.80;81.50
40053;DHT22;25758;48.200;16.338;2023-05-10T13:07:41;19.80;82.80
40053;DHT22;25758;48.200;16.338;2023-05-10T13:10:06;19.80;82.40
40053;DHT22;25758;48.200;16.338;2023-05-10T13:12:32;19.80;83.60
40053;DHT22;25758;48.200;16.338;2023-05-10T13:14:58;19.80;82.10
40053;DHT22;25758;48.200;16.338;2023-05-10T13:17:25;19.80;83.20
40053;DHT22;25758;48.200;16.338;2023-05-10T13:19:51;19.90;83.60
40053;DHT22;25758;48.200;16.338;2023-05-10T13:22:16;19.90;83.20
40053;DHT22;25758;48.200;16.338;2023-05-10T13:24:42;19.80;83.00
40053;DHT22;25758;48.200;16.338;2023-05-10T13:27:08;19.70;83.00
40053;DHT22;25758;48.200;16.338;2023-05-10T13:29:34;19.80;83.90
40053;DHT22;25758;48.200;16.338;2023-05-10T13:31:59;19.80;83.00
40053;DHT22;25758;48.200;16.338;2023-05-10T13:34:26;19.90;85.10
40053;DHT22;25758;48.200;16.338;2023-05-10T13:36:52;19.90;84.30
40053;DHT22;25758;48.200;16.338;2023-05-10T13:39:20;19.90;82.70
40053;DHT22;25758;48.200;16.338;2023-05-10T13:41:46;19.90;82.90
40053;DHT22;25758;48.200;16.338;2023-05-10T13:44:15;19.80;83.30
40053;DHT22;25758;48.200;16.338;2023-05-10T13:46:41;19.80;81.40
40053;DHT22;25758;48.200;16.338;2023-05-10T13:49:08;19.70;82.20
40053;DHT22;25758;48.200;16.338;2023-05-10T13:51:34;19.70;81.80
40053;DHT22;25758;48.200;16.338;2023-05-10T13:54:03;19.60;81.30
40053;DHT22;25758;48.200;16.338;2023-05-10T13:56:29;19.60;81.70
40053;DHT22;25758;48.200;16.338;2023-05-10T13:58:56;19.50;81.30
40053;DHT22;25758;48.200;16.338;2023-05-10T14:01:22;19.50;81.40
40053;DHT22;25758;48.200;16.338;2023-05-10T14:03:48;19.60;82.20
40053;DHT22;25758;48.200;16.338;2023-05-10T14:06:14;19.70;82.10
40053;DHT22;25758;48.200;16.338;2023-05-10T14:08:39;19.60;81.00
40053;DHT22;25758;48.200;16.338;2023-05-10T14:11:05;19.60;80.80
40053;DHT22;25758;48.200;16.338;2023-05-10T14:13:31;19.60;80.20
40053;DHT22;25758;48.200;16.338;2023-05-10T14:15:56;19.50;81.00
40053;DHT22;25758;48.200;16.338;2023-05-10T14:18:22;19.60;81.60
40053;DHT22;25758;48.200;16.338;2023-05-10T14:20:48;19.70;80.60
40053;DHT22;25758;48.200;16.338;2023-05-10T14:23:13;19.80;79.70
40053;DHT22;25758;48.200;16.338;2023-05-10T14:25:40;19.70;79.70
40053;DHT22;25758;48.200;16.338;2023-05-10T14:28:06;19.70;80.10
40053;DHT22;25758;48.200;16.338;2023-05-10T14:30:32;19.80;79.60
40053;DHT22;25758;48.200;16.338;2023-05-10T14:33:00;19.80;78.60
40053;DHT22;25758;48.200;16.338;2023-05-10T14:35:27;19.90;79.20
40053;DHT22;25758;48.200;16.338;2023-05-10T14:37:53;19.90;79.10
40053;DHT22;25758;48.200;16.338;2023-05-10T14:40:18;19.90;80.50
40053;DHT22;25758;48.200;16.338;2023-05-10T14:42:44;20.00;78.70
40053;DHT22;25758;48.200;16.338;2023-05-10T14:45:10;20.00;78.20
40053;DHT22;25758;48.200;16.338;2023-05-10T14:47:36;20.00;78.40
40053;DHT22;25758;48.200;16.338;2023-05-10T14:50:02;20.00;78.30
40053;DHT22;25758;48.200;16.338;2023-05-10T14:52:27;20.00;77.60
40053;DHT22;25758;48.200;16.338;2023-05-10T14:54:53;19.90;77.90
40053;DHT22;25758;48.200;16.338;2023-05-10T14:57:19;20.00;76.90
40053;DHT22;25758;48.200;16.338;2023-05-10T14:59:44;19.90;75.70
40053;DHT22;25758;48.200;16.338;2023-05-10T15:02:10;19.90;75.30
40053;DHT22;25758;48.200;16.338;2023-05-10T15:04:36;19.90;75.60
40053;DHT22;25758;48.200;16.338;2023-05-10T15:07:02;19.90;75.60
40053;DHT22;25758;48.200;16.338;2023-05-10T15:09:28;19.90;76.10
40053;DHT22;25758;48.200;16.338;2023-05-10T15:11:54;19.90;76.10
40053;DHT22;25758;48.200;16.338;2023-05-10T15:14:20;19.90;76.60
40053;DHT22;25758;48.200;16.338;2023-05-10T15:16:45;19.90;76.50
40053;DHT22;25758;48.200;16.338;2023-05-10T15:19:12;20.00;77.00
40053;DHT22;25758;48.200;16.338;2023-05-10T15:21:37;20.10;76.80
40053;DHT22;25758;48.200;16.338;2023-05-10T15:24:07;20.00;76.70
40053;DHT22;25758;48.200;16.338;2023-05-10T15:26:34;20.00;76.80
40053;DHT22;25758;48.200;16.338;2023-05-10T15:28:59;19.90;77.30
40053;DHT22;25758;48.200;16.338;2023-05-10T15:31:25;19.90;78.00
40053;DHT22;25758;48.200;16.338;2023-05-10T15:33:58;19.90;78.50
40053;DHT22;25758;48.200;16.338;2023-05-10T15:36:24;19.90;77.90
40053;DHT22;25758;48.200;16.338;2023-05-10T15:38:50;19.90;77.30
40053;DHT22;25758;48.200;16.338;2023-05-10T15:41:15;19.90;77.70